Aviation Digital Data Service (ADDS)

Output produced by METARs form (1729 UTC 03 June 2020)
found at http://www.aviationweather.gov/metar/data/
 
Forecast for: YMML (MELBOURNE INTL A, AU)
Text: TAF YMML 031643Z 0318/0500 36006KT 9999 BKN030
Forecast period: 1800 to 2300 UTC 03 June 2020
Forecast type: FROM: standard forecast or significant change
Winds: from the N (360 degrees) at 7 MPH (6 knots; 3.1 m/s)
Visibility: 6 or more miles 10+ km)
Ceiling: 3000 feet AGL
Clouds: broken clouds at 3000 feet AGL
Weather: no significant weather forecast for this period
Text: BECMG 0323/0401 VRB03KT CAVOK
Forecast period: 2300 UTC 03 June 2020 to 1100 UTC 04 June 2020
Forecast type: BECOMING: Conditions expected to become as follows by 0100 UTC 04 June 2020
Winds: variable direction winds at 3 MPH (3 knots; 1.5 m/s)
Visibility: 6 or more miles 10+ km)
Ceiling: unknown
Clouds: missing
Weather: NSW  (no significant weather)
Text: FM041100 36006KT CAVOK
Forecast period: 1100 UTC 04 June 2020 to 0000 UTC 05 June 2020
Forecast type: FROM: standard forecast or significant change
Winds: from the N (360 degrees) at 7 MPH (6 knots; 3.1 m/s)
Visibility: 6 or more miles 10+ km)
Ceiling: unknown
Clouds: missing
Weather: NSW  (no significant weather)